Time;durP1;ratioP1;P1;durP2;ratioP2;P2;SDS_P1;SDS_P2;PMS_P1;PMS_P2;Temp;Humidity;BMP_temperature;BMP_pressure;BME280_temperature;BME280_humidity;BME280_pressure;Samples;Min_cycle;Max_cycle;Signal;HPM_P1;HPM_P2
2021/06/06 00:02:12;;;;;;;14.30;6.70;;;563.20;1356.80;;;;;;5073303;28;20030;-56
2021/06/06 00:04:44;;;;;;;12.32;6.60;;;538.50;1356.80;;;;;;5073830;28;20507;-70
2021/06/06 00:07:12;;;;;;;12.65;6.80;;;538.30;1356.80;;;;;;5073464;28;20422;-56
2021/06/06 00:09:38;;;;;;;14.57;7.57;;;538.30;1356.80;;;;;;5073181;28;20021;-70
2021/06/06 00:12:05;;;;;;;16.88;9.13;;;538.10;1382.40;;;;;;5073136;28;20033;-56
2021/06/06 00:14:34;;;;;;;20.00;8.60;;;538.00;1382.40;;;;;;5073148;28;20455;-56
2021/06/06 00:17:03;;;;;;;16.58;8.93;;;538.00;1382.40;;;;;;5073208;28;20078;-70
2021/06/06 00:19:29;;;;;;;15.70;8.45;;;538.10;1382.40;;;;;;5071851;28;20024;-56
2021/06/06 00:21:58;;;;;;;18.08;8.27;;;538.10;1382.40;;;;;;5073243;28;20132;-67
2021/06/06 00:24:27;;;;;;;12.60;7.78;;;538.10;1382.40;;;;;;5071767;28;20016;-56
2021/06/06 00:26:53;;;;;;;11.13;7.15;;;538.10;1382.40;;;;;;5073035;28;20016;-70
2021/06/06 00:29:21;;;;;;;16.55;7.95;;;538.10;1382.40;;;;;;5073040;28;20024;-56
2021/06/06 00:31:46;;;;;;;11.77;7.40;;;538.20;1382.40;;;;;;5072941;28;20033;-56
2021/06/06 00:34:13;;;;;;;16.58;8.98;;;538.20;1382.40;;;;;;5072957;28;20027;-56
2021/06/06 00:36:39;;;;;;;15.85;8.50;;;538.20;1408.00;;;;;;5072899;28;20451;-69
2021/06/06 00:39:05;;;;;;;13.02;7.50;;;538.10;1382.40;;;;;;5073227;28;20017;-56
2021/06/06 00:41:31;;;;;;;15.27;7.80;;;538.00;1408.00;;;;;;5072867;28;20024;-57
2021/06/06 00:43:58;;;;;;;13.20;7.65;;;537.80;1484.80;;;;;;5072899;28;20020;-56
2021/06/06 00:46:26;;;;;;;14.40;7.60;;;537.90;1459.20;;;;;;5072806;28;20021;-68
2021/06/06 00:48:54;;;;;;;15.52;7.63;;;537.80;1433.60;;;;;;5072842;28;20021;-56
2021/06/06 00:51:41;;;;;;;12.85;7.50;;;537.80;1433.60;;;;;;5073029;28;20029;-56
2021/06/06 00:54:13;;;;;;;17.67;8.55;;;537.90;1433.60;;;;;;5072883;28;20133;-69
2021/06/06 00:56:40;;;;;;;16.10;8.10;;;537.80;1433.60;;;;;;5072794;28;20033;-69
2021/06/06 00:59:07;;;;;;;13.70;7.68;;;538.00;1433.60;;;;;;5072652;28;20040;-56
2021/06/06 01:01:33;;;;;;;19.45;8.55;;;537.80;1433.60;;;;;;5075276;28;20017;-56
2021/06/06 01:04:00;;;;;;;18.15;8.20;;;537.70;1408.00;;;;;;5076341;28;20036;-56
2021/06/06 01:06:33;;;;;;;18.15;8.40;;;537.70;1433.60;;;;;;5076325;28;20107;-61
2021/06/06 01:09:00;;;;;;;14.73;8.02;;;537.70;1459.20;;;;;;5076280;28;20028;-70
2021/06/06 01:12:01;;;;;;;14.27;8.13;;;537.60;1459.20;;;;;;5076259;28;20778;-56
2021/06/06 01:14:38;;;;;;;16.05;8.07;;;537.60;1484.80;;;;;;5075822;28;20041;-70
2021/06/06 01:17:12;;;;;;;13.93;8.15;;;537.60;1484.80;;;;;;5074814;28;20059;-57
2021/06/06 01:19:42;;;;;;;13.93;8.05;;;537.60;1484.80;;;;;;5076033;28;20099;-70
2021/06/06 01:22:46;;;;;;;14.88;7.65;;;537.60;1484.80;;;;;;5076009;28;20024;-56
2021/06/06 01:25:18;;;;;;;14.60;7.80;;;537.60;1484.80;;;;;;5076236;28;20030;-56
2021/06/06 01:27:50;;;;;;;12.68;9.13;;;537.60;1484.80;;;;;;5075918;28;20074;-56
2021/06/06 01:30:23;;;;;;;14.68;8.90;;;512.90;1459.20;;;;;;5075778;28;20025;-70
2021/06/06 01:33:01;;;;;;;17.38;9.52;;;512.80;1484.80;;;;;;5076121;28;20039;-70
2021/06/06 01:35:51;;;;;;;12.23;8.68;;;512.80;1484.80;;;;;;5075798;28;20363;-70
2021/06/06 01:38:17;;;;;;;18.90;9.13;;;512.80;1459.20;;;;;;5075808;28;20021;-69
2021/06/06 01:40:45;;;;;;;16.27;9.35;;;512.80;1484.80;;;;;;5075592;28;20116;-57
2021/06/06 01:43:19;;;;;;;15.25;9.23;;;512.80;1459.20;;;;;;5075608;28;20031;-56
2021/06/06 01:45:54;;;;;;;16.13;9.73;;;512.80;1459.20;;;;;;5075587;28;20024;-56
2021/06/06 01:48:20;;;;;;;13.93;9.60;;;512.80;1459.20;;;;;;5075729;28;20028;-56
2021/06/06 01:50:54;;;;;;;15.25;8.80;;;512.80;1484.80;;;;;;5075416;28;20020;-69
2021/06/06 01:53:21;;;;;;;13.90;8.80;;;512.70;1459.20;;;;;;5075683;28;20462;-70
2021/06/06 01:55:50;;;;;;;19.92;9.27;;;512.80;1459.20;;;;;;5075379;28;20024;-56
2021/06/06 01:58:18;;;;;;;12.68;9.05;;;512.80;1459.20;;;;;;5075153;28;20051;-69
2021/06/06 02:00:53;;;;;;;17.50;9.13;;;512.70;1484.80;;;;;;5075248;28;20103;-56
2021/06/06 02:03:19;;;;;;;16.85;9.25;;;512.60;1484.80;;;;;;5075514;28;20024;-68
2021/06/06 02:05:46;;;;;;;17.48;9.85;;;512.60;1484.80;;;;;;5075450;28;20035;-69
2021/06/06 02:08:16;;;;;;;15.52;9.82;;;512.60;1510.40;;;;;;5073824;28;20381;-64
2021/06/06 02:10:55;;;;;;;14.38;9.07;;;512.60;1484.80;;;;;;5075028;28;20040;-56
2021/06/06 02:13:46;;;;;;;14.38;8.65;;;512.60;1510.40;;;;;;5074803;28;20107;-61
2021/06/06 02:16:20;;;;;;;18.27;8.63;;;512.60;1510.40;;;;;;5075266;28;20466;-56
2021/06/06 02:18:46;;;;;;;18.77;8.82;;;512.60;1484.80;;;;;;5074993;28;20043;-58
2021/06/06 02:21:13;;;;;;;13.55;8.57;;;512.60;1510.40;;;;;;5074847;28;20024;-56
2021/06/06 02:23:43;;;;;;;13.25;9.02;;;512.60;1484.80;;;;;;5074807;28;20017;-70
2021/06/06 02:26:25;;;;;;;16.52;9.35;;;512.70;1510.40;;;;;;5074852;28;20024;-61
2021/06/06 02:29:01;;;;;;;13.43;9.50;;;512.40;1536.00;;;;;;5075038;28;20489;-56
2021/06/06 02:31:37;;;;;;;18.42;10.27;;;512.40;1510.40;;;;;;5074833;28;20024;-56
2021/06/06 02:34:12;;;;;;;23.52;12.70;;;512.40;1484.80;;;;;;5074632;28;20511;-56
2021/06/06 02:36:42;;;;;;;24.00;13.98;;;512.50;1510.40;;;;;;5074842;28;20032;-70
2021/06/06 02:39:43;;;;;;;28.70;13.20;;;512.60;1484.80;;;;;;5074547;28;20023;-70
2021/06/06 02:42:15;;;;;;;31.60;15.57;;;512.60;1510.40;;;;;;5052390;28;20053;-69
2021/06/06 02:45:01;;;;;;;15.02;9.07;;;512.60;1510.40;;;;;;5052390;28;20033;-56
2021/06/06 02:47:32;;;;;;;15.20;7.88;;;512.60;1510.40;;;;;;5052218;28;20036;-56
2021/06/06 02:50:05;;;;;;;12.73;7.88;;;512.50;1510.40;;;;;;5052368;28;20035;-69
2021/06/06 02:52:41;;;;;;;17.73;7.60;;;512.30;1510.40;;;;;;5052181;28;20045;-68
2021/06/06 02:55:15;;;;;;;15.55;7.15;;;512.30;1510.40;;;;;;5052199;28;20028;-70
2021/06/06 02:57:46;;;;;;;11.95;6.53;;;512.30;1484.80;;;;;;5051882;28;20049;-59
2021/06/06 03:00:25;;;;;;;11.98;6.45;;;512.30;1484.80;;;;;;5052105;28;20033;-69
2021/06/06 03:02:57;;;;;;;14.07;6.70;;;512.50;1459.20;;;;;;5052369;28;20123;-69
2021/06/06 03:05:28;;;;;;;8.70;6.03;;;512.40;1459.20;;;;;;5052511;28;20482;-57
2021/06/06 03:07:58;;;;;;;13.23;6.70;;;512.50;1459.20;;;;;;5051905;28;20028;-56
2021/06/06 03:10:26;;;;;;;8.30;5.60;;;512.50;1459.20;;;;;;5051974;28;20037;-69
2021/06/06 03:12:55;;;;;;;17.02;6.55;;;512.50;1459.20;;;;;;5035046;28;20037;-57
2021/06/06 03:15:28;;;;;;;9.65;6.90;;;512.50;1459.20;;;;;;5051841;28;20078;-57
2021/06/06 03:17:56;;;;;;;11.52;6.43;;;512.50;1484.80;;;;;;5065202;28;20032;-57
2021/06/06 03:20:38;;;;;;;13.40;7.10;;;512.50;1459.20;;;;;;5073743;28;20082;-56
2021/06/06 03:23:07;;;;;;;12.30;6.35;;;512.50;1459.20;;;;;;5073676;28;20021;-56
2021/06/06 03:25:51;;;;;;;9.68;6.75;;;512.50;1484.80;;;;;;5073633;28;20024;-69
2021/06/06 03:28:19;;;;;;;13.07;6.53;;;512.50;1484.80;;;;;;5073735;28;20028;-56
2021/06/06 03:30:49;;;;;;;18.00;5.28;;;512.40;1459.20;;;;;;5073594;28;20024;-56
2021/06/06 03:33:18;;;;;;;9.27;6.00;;;512.40;1459.20;;;;;;5073568;28;20021;-56
2021/06/06 03:35:45;;;;;;;12.20;5.80;;;512.40;1459.20;;;;;;5072291;28;20111;-57
2021/06/06 03:38:12;;;;;;;10.75;6.38;;;512.40;1459.20;;;;;;5073799;28;20024;-67
2021/06/06 03:40:43;;;;;;;12.55;6.10;;;512.40;1459.20;;;;;;5073465;28;20027;-69
2021/06/06 03:43:16;;;;;;;11.07;5.68;;;512.40;1484.80;;;;;;5073576;28;20081;-69
2021/06/06 03:45:42;;;;;;;12.60;6.10;;;512.50;1459.20;;;;;;5073769;28;20458;-56
2021/06/06 03:48:09;;;;;;;11.10;6.03;;;512.40;1484.80;;;;;;5073435;28;20496;-69
2021/06/06 03:50:38;;;;;;;10.52;5.28;;;512.40;1459.20;;;;;;5073488;28;20035;-68
2021/06/06 03:53:06;;;;;;;11.55;5.20;;;512.50;1459.20;;;;;;5073358;28;20089;-68
2021/06/06 03:55:31;;;;;;;11.18;5.57;;;512.50;1459.20;;;;;;5073352;28;20103;-56
2021/06/06 03:57:57;;;;;;;7.47;5.55;;;512.50;1459.20;;;;;;5072167;28;20131;-56
2021/06/06 04:00:39;;;;;;;18.98;5.50;;;512.50;1459.20;;;;;;5073294;28;20095;-56
2021/06/06 04:03:05;;;;;;;10.02;6.13;;;512.50;1459.20;;;;;;5073391;28;20048;-56
2021/06/06 04:05:31;;;;;;;12.60;5.07;;;512.50;1459.20;;;;;;5073249;28;20052;-61
2021/06/06 04:07:57;;;;;;;10.43;6.22;;;512.50;1459.20;;;;;;5073414;28;20028;-58
2021/06/06 04:10:24;;;;;;;8.52;5.32;;;512.50;1459.20;;;;;;5073141;28;20386;-56
2021/06/06 04:12:51;;;;;;;9.52;6.15;;;512.60;1433.60;;;;;;5072931;28;20029;-57
2021/06/06 04:15:18;;;;;;;11.02;5.45;;;512.70;1433.60;;;;;;5073253;28;20021;-56
2021/06/06 04:17:44;;;;;;;8.90;5.95;;;512.70;1459.20;;;;;;5072947;28;20024;-56
2021/06/06 04:20:12;;;;;;;12.40;6.53;;;512.70;1459.20;;;;;;5072971;28;20020;-57
2021/06/06 04:22:39;;;;;;;11.00;5.10;;;512.70;1459.20;;;;;;5072834;28;20064;-57
2021/06/06 04:25:07;;;;;;;12.20;6.13;;;512.90;1433.60;;;;;;5072920;28;20045;-57
2021/06/06 04:27:33;;;;;;;9.90;6.15;;;537.60;1459.20;;;;;;5073087;28;20021;-57
2021/06/06 04:29:59;;;;;;;8.85;5.13;;;537.70;1459.20;;;;;;5071765;28;20035;-58
2021/06/06 04:32:26;;;;;;;13.68;6.25;;;537.70;1459.20;;;;;;5071601;28;20032;-60
2021/06/06 04:34:52;;;;;;;11.35;6.25;;;537.80;1459.20;;;;;;5071720;28;20024;-57
2021/06/06 04:37:19;;;;;;;13.40;6.25;;;537.80;1433.60;;;;;;5075184;28;20107;-58
2021/06/06 04:39:45;;;;;;;10.50;5.30;;;538.00;1459.20;;;;;;5076878;28;20518;-56
2021/06/06 04:42:13;;;;;;;17.27;6.43;;;537.80;1459.20;;;;;;5076670;28;20145;-57
2021/06/06 04:44:39;;;;;;;14.65;6.60;;;537.90;1459.20;;;;;;5076532;28;20025;-57
2021/06/06 04:47:09;;;;;;;12.90;5.90;;;538.00;1484.80;;;;;;5076726;28;20069;-57
2021/06/06 04:49:40;;;;;;;7.95;6.22;;;538.00;1484.80;;;;;;5076592;28;20020;-56
2021/06/06 04:52:09;;;;;;;16.38;6.10;;;538.10;1484.80;;;;;;5076423;28;20043;-57
2021/06/06 04:54:35;;;;;;;16.30;6.72;;;538.10;1459.20;;;;;;5076700;28;20047;-61
2021/06/06 04:57:01;;;;;;;12.30;6.85;;;538.10;1459.20;;;;;;5076279;28;20060;-59
2021/06/06 04:59:27;;;;;;;13.80;6.80;;;538.10;1484.80;;;;;;5076425;28;20024;-57
2021/06/06 05:01:53;;;;;;;12.50;6.80;;;538.10;1484.80;;;;;;5076405;28;20020;-56
2021/06/06 05:04:19;;;;;;;10.07;7.10;;;538.10;1484.80;;;;;;5076221;28;20491;-58
2021/06/06 05:06:45;;;;;;;8.45;6.82;;;538.10;1484.80;;;;;;5076077;28;20103;-57
2021/06/06 05:09:11;;;;;;;14.73;6.68;;;538.10;1484.80;;;;;;5076224;28;20059;-56
2021/06/06 05:11:37;;;;;;;13.63;6.78;;;538.20;1459.20;;;;;;5075947;28;20029;-57
2021/06/06 05:14:05;;;;;;;9.13;6.70;;;538.20;1459.20;;;;;;5076251;28;20017;-56
2021/06/06 05:16:32;;;;;;;11.82;7.00;;;538.20;1510.40;;;;;;5076132;28;20032;-56
2021/06/06 05:18:58;;;;;;;9.93;6.50;;;538.30;1459.20;;;;;;5076024;28;20027;-57
2021/06/06 05:21:25;;;;;;;9.88;7.60;;;538.30;1484.80;;;;;;5076083;28;20377;-56
2021/06/06 05:23:51;;;;;;;14.30;6.97;;;538.40;1510.40;;;;;;5075961;28;20029;-56
2021/06/06 05:26:17;;;;;;;13.77;5.85;;;538.40;1484.80;;;;;;5075759;28;20048;-59
2021/06/06 05:28:44;;;;;;;16.60;6.43;;;538.50;1459.20;;;;;;5075839;28;20500;-57
2021/06/06 05:31:12;;;;;;;15.75;6.00;;;538.50;1433.60;;;;;;5075811;28;20083;-56
2021/06/06 05:33:37;;;;;;;9.13;5.47;;;538.50;1433.60;;;;;;5074516;28;20165;-57
2021/06/06 05:36:04;;;;;;;12.00;5.90;;;563.20;1484.80;;;;;;5075691;28;20103;-64
2021/06/06 05:38:32;;;;;;;10.77;6.07;;;563.20;1510.40;;;;;;5075597;28;20028;-58
2021/06/06 05:40:58;;;;;;;12.63;5.78;;;563.20;1484.80;;;;;;5075854;28;20483;-58
2021/06/06 05:43:26;;;;;;;12.45;6.80;;;563.20;1510.40;;;;;;5075501;28;20035;-61
2021/06/06 05:45:53;;;;;;;12.45;6.10;;;563.20;1561.60;;;;;;5075259;28;20036;-61
2021/06/06 05:48:19;;;;;;;10.85;5.95;;;563.20;1536.00;;;;;;5073829;28;20025;-59
2021/06/06 05:50:47;;;;;;;18.52;5.95;;;563.30;1536.00;;;;;;5075194;28;20103;-61
2021/06/06 05:53:14;;;;;;;10.93;5.40;;;563.30;1536.00;;;;;;5075386;28;20428;-57
2021/06/06 05:55:40;;;;;;;13.05;5.85;;;563.30;1536.00;;;;;;5075508;28;20528;-70
2021/06/06 05:58:06;;;;;;;14.00;6.28;;;563.30;1510.40;;;;;;5074757;28;20090;-57
2021/06/06 06:00:36;;;;;;;9.90;6.15;;;563.30;1484.80;;;;;;5073479;28;20024;-56
2021/06/06 06:03:04;;;;;;;9.48;4.72;;;563.30;1484.80;;;;;;5073164;28;20031;-59
2021/06/06 06:05:31;;;;;;;8.00;5.07;;;563.30;1484.80;;;;;;5074668;28;20070;-56
2021/06/06 06:07:57;;;;;;;8.50;5.10;;;563.30;1459.20;;;;;;5074750;28;20030;-67
2021/06/06 06:10:29;;;;;;;11.32;4.93;;;563.30;1484.80;;;;;;5069643;28;20453;-67
2021/06/06 06:12:56;;;;;;;9.53;5.40;;;563.30;1536.00;;;;;;5072153;28;20025;-68
2021/06/06 06:15:22;;;;;;;7.70;5.32;;;563.30;1561.60;;;;;;5073547;28;20020;-57
2021/06/06 06:17:48;;;;;;;11.10;4.70;;;563.30;1587.20;;;;;;5073779;28;20378;-67
2021/06/06 06:20:19;;;;;;;9.88;5.30;;;563.40;1561.60;;;;;;5073316;28;20020;-69
2021/06/06 06:22:45;;;;;;;15.60;5.53;;;563.50;1510.40;;;;;;5072569;28;20380;-69
2021/06/06 06:25:13;;;;;;;14.00;5.55;;;563.60;1510.40;;;;;;5073292;28;20028;-69
2021/06/06 06:27:40;;;;;;;10.45;5.45;;;563.70;1536.00;;;;;;5072947;28;20025;-63
2021/06/06 06:30:10;;;;;;;10.65;5.93;;;563.70;1484.80;;;;;;5071548;28;20020;-58
2021/06/06 06:32:36;;;;;;;12.38;4.95;;;563.80;1484.80;;;;;;5070751;28;20036;-69
2021/06/06 06:35:03;;;;;;;19.50;5.03;;;563.90;1510.40;;;;;;5073130;28;20027;-68
2021/06/06 06:37:29;;;;;;;14.25;4.90;;;564.00;1433.60;;;;;;5071821;28;20016;-58
2021/06/06 06:39:55;;;;;;;9.43;4.65;;;564.00;1433.60;;;;;;5070381;28;20103;-67
2021/06/06 06:42:21;;;;;;;13.52;4.47;;;563.70;1459.20;;;;;;5071435;28;20461;-68
2021/06/06 06:44:46;;;;;;;8.25;4.35;;;564.10;1484.80;;;;;;5071304;28;20102;-64
2021/06/06 06:47:13;;;;;;;10.98;4.68;;;564.10;1433.60;;;;;;5071312;28;20088;-61
2021/06/06 06:49:40;;;;;;;9.25;5.13;;;564.10;1433.60;;;;;;5071405;28;20466;-60
2021/06/06 06:52:06;;;;;;;13.55;4.60;;;564.10;1433.60;;;;;;5071949;28;20036;-62
2021/06/06 06:54:32;;;;;;;15.85;4.95;;;564.00;1459.20;;;;;;5072709;28;20055;-65
2021/06/06 06:56:58;;;;;;;11.63;4.60;;;564.10;1433.60;;;;;;5073096;28;20052;-57
2021/06/06 06:59:27;;;;;;;12.32;4.47;;;564.10;1459.20;;;;;;5071918;28;20384;-66
2021/06/06 07:01:58;;;;;;;10.45;3.90;;;564.10;1433.60;;;;;;5070810;28;20103;-68
2021/06/06 07:04:25;;;;;;;10.05;4.20;;;588.80;1459.20;;;;;;5072125;28;20025;-67
2021/06/06 07:06:52;;;;;;;7.30;4.85;;;588.80;1433.60;;;;;;5069297;28;20048;-67
2021/06/06 07:09:19;;;;;;;17.77;5.40;;;588.80;1459.20;;;;;;5071141;28;20037;-60
2021/06/06 07:11:45;;;;;;;15.98;4.97;;;564.10;1459.20;;;;;;5071367;28;20032;-68
2021/06/06 07:14:11;;;;;;;14.93;5.20;;;564.10;1459.20;;;;;;5072276;28;20493;-67
2021/06/06 07:16:38;;;;;;;7.95;4.90;;;564.10;1459.20;;;;;;5071048;28;20391;-68
2021/06/06 07:19:05;;;;;;;12.63;5.97;;;564.10;1484.80;;;;;;5072459;28;20024;-64
2021/06/06 07:21:31;;;;;;;7.55;4.15;;;564.10;1484.80;;;;;;5072130;28;20028;-69
2021/06/06 07:23:57;;;;;;;12.68;5.07;;;564.10;1510.40;;;;;;5071459;28;20020;-62
2021/06/06 07:26:32;;;;;;;13.57;4.90;;;564.10;1484.80;;;;;;5070734;28;20093;-61
2021/06/06 07:29:00;;;;;;;12.00;4.75;;;564.00;1484.80;;;;;;5070491;28;20020;-69
2021/06/06 07:31:28;;;;;;;10.38;4.20;;;564.00;1459.20;;;;;;5070836;28;20481;-67
2021/06/06 07:33:54;;;;;;;7.15;4.30;;;564.10;1459.20;;;;;;5071246;28;20115;-69
2021/06/06 07:36:20;;;;;;;11.77;4.60;;;588.80;1433.60;;;;;;5072064;28;20146;-68
2021/06/06 07:38:49;;;;;;;10.98;4.03;;;564.10;1408.00;;;;;;5071589;28;20021;-69
2021/06/06 07:41:17;;;;;;;12.00;4.03;;;588.80;1433.60;;;;;;5071322;28;20024;-69
2021/06/06 07:43:44;;;;;;;7.28;4.00;;;588.80;1433.60;;;;;;5070745;28;20028;-69
2021/06/06 07:46:10;;;;;;;7.57;4.03;;;564.10;1433.60;;;;;;5070973;28;20030;-67
2021/06/06 07:48:36;;;;;;;9.52;4.07;;;564.10;1433.60;;;;;;5071495;28;20021;-69
2021/06/06 07:51:03;;;;;;;6.95;5.07;;;564.00;1433.60;;;;;;5070558;28;20123;-69
2021/06/06 07:53:28;;;;;;;12.80;5.93;;;563.90;1459.20;;;;;;5071950;28;20036;-69
2021/06/06 07:55:56;;;;;;;11.20;6.82;;;563.80;1484.80;;;;;;5071351;28;20118;-59
2021/06/06 07:58:31;;;;;;;13.88;4.93;;;563.70;1484.80;;;;;;5070047;28;20052;-63
2021/06/06 08:00:57;;;;;;;10.95;5.00;;;563.70;1484.80;;;;;;5070515;28;20028;-65
2021/06/06 08:03:29;;;;;;;5.47;4.30;;;563.70;1484.80;;;;;;5070947;28;20028;-68
2021/06/06 08:05:56;;;;;;;9.40;4.68;;;563.60;1484.80;;;;;;5070413;28;20083;-67
2021/06/06 08:08:22;;;;;;;11.18;5.22;;;563.60;1536.00;;;;;;5070811;28;20043;-68
2021/06/06 08:10:51;;;;;;;12.10;5.35;;;563.60;1536.00;;;;;;5072230;28;20473;-67
2021/06/06 08:13:18;;;;;;;14.57;6.90;;;563.70;1536.00;;;;;;5075470;28;20497;-69
2021/06/06 08:15:44;;;;;;;13.45;6.72;;;563.50;1536.00;;;;;;5075639;28;20104;-58
2021/06/06 08:18:12;;;;;;;9.00;4.78;;;563.50;1536.00;;;;;;5075604;28;20024;-58
2021/06/06 08:20:49;;;;;;;10.10;4.25;;;563.30;1561.60;;;;;;5075767;28;20096;-69
2021/06/06 08:23:16;;;;;;;6.30;4.40;;;563.20;1587.20;;;;;;5074206;28;20028;-58
2021/06/06 08:25:42;;;;;;;9.15;4.82;;;563.30;1587.20;;;;;;5075503;28;20028;-63
2021/06/06 08:28:09;;;;;;;10.73;5.10;;;563.20;1612.80;;;;;;5075029;28;20024;-59
2021/06/06 08:30:45;;;;;;;13.27;5.15;;;563.20;1638.40;;;;;;5074994;28;20013;-65
2021/06/06 08:33:12;;;;;;;14.63;6.10;;;563.20;1638.40;;;;;;5073713;28;20033;-58
2021/06/06 08:35:38;;;;;;;10.50;5.90;;;563.20;1638.40;;;;;;5074008;28;20051;-66
2021/06/06 08:38:04;;;;;;;9.50;5.55;;;538.40;1664.00;;;;;;5073248;28;20396;-68
2021/06/06 08:40:45;;;;;;;11.88;5.32;;;538.50;1638.40;;;;;;5074930;28;20020;-65
2021/06/06 08:43:12;;;;;;;10.32;5.88;;;538.50;1664.00;;;;;;5075261;28;20489;-65
2021/06/06 08:45:56;;;;;;;7.70;5.07;;;538.20;1664.00;;;;;;5073871;28;20071;-66
2021/06/06 08:48:23;;;;;;;10.65;5.25;;;538.10;1664.00;;;;;;5073592;28;20017;-68
2021/06/06 08:50:55;;;;;;;10.82;6.03;;;538.20;1664.00;;;;;;5074363;28;20044;-58
2021/06/06 08:53:39;;;;;;;9.52;6.03;;;538.20;1664.00;;;;;;5073469;28;20033;-58
2021/06/06 08:56:35;;;;;;;27.75;7.28;;;538.30;1664.00;;;;;;5073668;28;20017;-67
2021/06/06 08:59:20;;;;;;;31.73;9.27;;;538.30;1740.80;;;;;;5073890;28;20763;-57
2021/06/06 09:01:55;;;;;;;32.97;9.77;;;538.10;1792.00;;;;;;5074152;28;20029;-66
2021/06/06 09:04:25;;;;;;;54.80;13.80;;;538.10;1868.80;;;;;;5074769;28;20251;-68
2021/06/06 09:06:51;;;;;;;40.17;11.95;;;538.10;1894.40;;;;;;5074026;28;20025;-67
2021/06/06 09:09:19;;;;;;;34.95;11.93;;;537.80;1945.60;;;;;;5074537;28;20025;-58
2021/06/06 09:11:45;;;;;;;28.90;11.05;;;537.80;1971.20;;;;;;5074118;28;20040;-67
2021/06/06 09:14:11;;;;;;;25.30;11.35;;;537.70;1971.20;;;;;;5073526;28;20031;-63
2021/06/06 09:16:56;;;;;;;23.48;10.43;;;537.70;2022.40;;;;;;5073071;28;20123;-63
2021/06/06 09:19:23;;;;;;;16.50;10.05;;;537.70;1996.80;;;;;;5074179;28;20481;-62
2021/06/06 09:21:56;;;;;;;16.45;8.75;;;537.60;2022.40;;;;;;5073559;28;20031;-67
2021/06/06 09:24:33;;;;;;;;;;;537.70;2022.40;;;;;;5074932;28;20029;-68
2021/06/06 09:27:22;;;;;;;18.55;9.32;;;537.70;2048.00;;;;;;5074666;28;19950;-67
2021/06/06 09:30:14;;;;;;;15.75;9.52;;;537.70;1996.80;;;;;;5074185;28;20032;-67
2021/06/06 09:32:40;;;;;;;17.58;9.77;;;537.60;2048.00;;;;;;5074277;28;20067;-67
2021/06/06 09:35:46;;;;;;;16.40;9.95;;;537.60;2073.60;;;;;;5073762;28;20495;-64
2021/06/06 09:38:18;;;;;;;16.05;10.77;;;537.60;2048.00;;;;;;5069839;28;20072;-59
2021/06/06 09:40:46;;;;;;;20.60;11.13;;;537.70;2048.00;;;;;;5071478;28;20039;-66
2021/06/06 09:43:29;;;;;;;15.13;10.77;;;537.80;2022.40;;;;;;5071633;28;20440;-67
2021/06/06 09:46:17;;;;;;;17.13;11.82;;;537.80;2073.60;;;;;;5071211;28;20033;-67
2021/06/06 09:48:44;;;;;;;14.57;11.45;;;537.80;2099.20;;;;;;5071834;28;20028;-67
2021/06/06 09:51:24;;;;;;;13.70;11.23;;;537.80;2099.20;;;;;;5071006;28;20032;-67
2021/06/06 09:53:55;;;;;;;15.30;10.35;;;537.90;2099.20;;;;;;5071484;28;20029;-67
2021/06/06 09:56:21;;;;;;;16.00;10.50;;;537.90;2099.20;;;;;;5070546;28;20537;-62
2021/06/06 09:58:49;;;;;;;13.40;10.38;;;538.00;2073.60;;;;;;5071406;28;20051;-68
2021/06/06 10:01:34;;;;;;;15.13;12.10;;;537.90;2150.40;;;;;;5071365;28;20032;-58
2021/06/06 10:04:05;;;;;;;31.92;20.10;;;537.80;2176.00;;;;;;5072543;28;20036;-68
2021/06/06 10:06:33;;;;;;;19.65;15.25;;;538.00;2099.20;;;;;;5073318;28;20044;-65
2021/06/06 10:09:01;;;;;;;16.50;10.65;;;538.00;2124.80;;;;;;5072784;28;20037;-58
2021/06/06 10:11:58;;;;;;;14.77;11.38;;;538.00;1996.80;;;;;;5072822;28;20503;-58
2021/06/06 10:14:46;;;;;;;12.05;10.60;;;538.00;2022.40;;;;;;5073615;28;20033;-57
2021/06/06 10:17:17;;;;;;;13.60;10.20;;;538.10;2022.40;;;;;;5067116;28;20028;-67
2021/06/06 10:19:51;;;;;;;11.57;10.38;;;538.00;2022.40;;;;;;5072698;28;20423;-68
2021/06/06 10:22:33;;;;;;;14.82;11.15;;;538.10;2022.40;;;;;;5071878;28;20025;-64
2021/06/06 10:25:08;;;;;;;12.30;9.85;;;537.80;2048.00;;;;;;5073783;28;20024;-68
2021/06/06 10:27:45;;;;;;;11.98;9.73;;;537.70;2073.60;;;;;;5072598;28;20029;-67
2021/06/06 10:30:21;;;;;;;12.43;10.13;;;537.80;2022.40;;;;;;5072350;28;20024;-58
2021/06/06 10:32:48;;;;;;;15.02;10.43;;;537.80;2073.60;;;;;;5071902;28;20098;-61
2021/06/06 10:35:16;;;;;;;14.90;10.20;;;537.80;2073.60;;;;;;5073216;28;20481;-63
2021/06/06 10:37:48;;;;;;;13.65;11.07;;;537.80;2073.60;;;;;;5072948;28;20039;-61
2021/06/06 10:40:44;;;;;;;13.07;10.48;;;537.80;2099.20;;;;;;5072726;28;20036;-67
2021/06/06 10:43:44;;;;;;;13.68;11.52;;;537.80;2073.60;;;;;;5055837;28;20036;-68
2021/06/06 10:46:10;;;;;;;14.65;11.93;;;537.80;2099.20;;;;;;5073029;28;20291;-68
2021/06/06 10:49:02;;;;;;;18.98;13.90;;;537.60;2176.00;;;;;;5072971;28;20026;-68
2021/06/06 10:51:38;;;;;;;18.73;16.50;;;537.60;2150.40;;;;;;5066671;28;20383;-62
2021/06/06 10:54:24;;;;;;;14.35;11.77;;;537.70;2124.80;;;;;;5071209;28;20086;-66
2021/06/06 10:56:55;;;;;;;13.73;11.27;;;537.70;2073.60;;;;;;5071659;28;20474;-67
2021/06/06 10:59:51;;;;;;;15.30;11.63;;;537.80;2099.20;;;;;;5073038;28;20040;-57
2021/06/06 11:02:51;;;;;;;15.70;10.95;;;537.80;2073.60;;;;;;5063882;28;20033;-68
2021/06/06 11:05:37;;;;;;;11.02;9.70;;;537.80;2073.60;;;;;;5071280;28;20043;-59
2021/06/06 11:08:14;;;;;;;15.85;10.95;;;537.80;2048.00;;;;;;5071655;28;20140;-68
2021/06/06 11:10:40;;;;;;;12.57;11.23;;;537.90;2048.00;;;;;;5071741;28;20043;-65
2021/06/06 11:13:34;;;;;;;20.77;13.88;;;537.70;2124.80;;;;;;5071117;28;20481;-68
2021/06/06 11:16:02;;;;;;;19.17;16.48;;;537.70;2176.00;;;;;;5072249;28;20031;-61
2021/06/06 11:18:28;;;;;;;19.27;16.80;;;537.80;2124.80;;;;;;5071934;28;20489;-58
2021/06/06 11:21:08;;;;;;;14.63;13.13;;;537.80;2150.40;;;;;;5072317;28;20082;-67
2021/06/06 11:23:36;;;;;;;14.30;12.63;;;537.80;2150.40;;;;;;5071704;28;20025;-58
2021/06/06 11:26:18;;;;;;;12.80;11.48;;;537.80;2124.80;;;;;;5069643;28;20047;-58
2021/06/06 11:28:45;;;;;;;13.13;11.55;;;537.70;2150.40;;;;;;5071560;28;20098;-68
2021/06/06 11:31:30;;;;;;;13.38;11.82;;;537.60;2176.00;;;;;;5072647;28;20029;-68
2021/06/06 11:34:14;;;;;;;15.07;11.35;;;537.60;2176.00;;;;;;5071807;28;20031;-68
2021/06/06 11:36:42;;;;;;;12.68;11.38;;;537.60;2150.40;;;;;;5072294;28;20096;-68
2021/06/06 11:39:13;;;;;;;13.02;11.23;;;537.60;2150.40;;;;;;5071870;28;20031;-62
2021/06/06 11:41:42;;;;;;;14.90;11.95;;;537.60;2124.80;;;;;;5072218;28;20020;-67
2021/06/06 11:44:42;;;;;;;13.77;12.38;;;537.60;2176.00;;;;;;5070199;28;20423;-68
2021/06/06 11:47:15;;;;;;;13.95;12.52;;;537.60;2176.00;;;;;;5072190;28;20048;-68
2021/06/06 11:50:03;;;;;;;15.45;13.45;;;512.90;2124.80;;;;;;5071971;28;20028;-67
2021/06/06 11:52:42;;;;;;;20.73;15.20;;;537.80;2124.80;;;;;;5071861;28;20032;-68
2021/06/06 11:55:21;;;;;;;19.23;14.10;;;537.90;2099.20;;;;;;5071824;28;20513;-64
2021/06/06 11:58:04;;;;;;;16.38;14.68;;;538.00;2099.20;;;;;;5071345;28;20079;-69
2021/06/06 12:00:46;;;;;;;13.77;11.93;;;538.00;2150.40;;;;;;5073192;28;20051;-57
2021/06/06 12:03:25;;;;;;;16.55;14.32;;;537.90;2099.20;;;;;;5073109;28;20103;-69
2021/06/06 12:05:57;;;;;;;13.38;12.02;;;537.90;2150.40;;;;;;5073236;28;20025;-59
2021/06/06 12:08:36;;;;;;;13.60;11.93;;;537.80;2124.80;;;;;;5073207;28;20070;-60
2021/06/06 12:11:07;;;;;;;13.75;12.27;;;538.00;2124.80;;;;;;5071788;28;20029;-60
2021/06/06 12:13:39;;;;;;;17.13;13.75;;;537.90;2150.40;;;;;;5073186;28;20074;-60
2021/06/06 12:16:12;;;;;;;15.20;13.60;;;537.90;2150.40;;;;;;5073080;28;20055;-60
2021/06/06 12:18:40;;;;;;;15.60;13.43;;;537.90;2176.00;;;;;;5072830;28;20021;-62
2021/06/06 12:21:16;;;;;;;14.90;13.50;;;537.90;2150.40;;;;;;5071974;28;20039;-68
2021/06/06 12:23:45;;;;;;;15.95;13.60;;;538.00;2176.00;;;;;;5071958;28;20094;-64
2021/06/06 12:26:16;;;;;;;15.23;13.70;;;538.00;2150.40;;;;;;5072956;28;20535;-62
2021/06/06 12:28:50;;;;;;;15.40;13.80;;;538.00;2150.40;;;;;;5072931;28;20047;-60
2021/06/06 12:31:44;;;;;;;16.25;13.48;;;538.00;2176.00;;;;;;5073082;28;20021;-64